sensor_id;sensor_type;location;lat;lon;timestamp;P1;durP1;ratioP1;P2;durP2;ratioP2
5054;SDS011;13829;48.990;8.346;2023-04-29T00:01:29;4.07;;;3.67;;
5054;SDS011;13829;48.990;8.346;2023-04-29T00:03:56;4.50;;;3.70;;
5054;SDS011;13829;48.990;8.346;2023-04-29T00:06:23;5.53;;;3.40;;
5054;SDS011;13829;48.990;8.346;2023-04-29T00:08:50;4.07;;;3.40;;
5054;SDS011;13829;48.990;8.346;2023-04-29T00:11:17;3.47;;;3.17;;
5054;SDS011;13829;48.990;8.346;2023-04-29T00:13:44;5.67;;;3.40;;
5054;SDS011;13829;48.990;8.346;2023-04-29T00:16:12;4.20;;;3.80;;
5054;SDS011;13829;48.990;8.346;2023-04-29T00:18:39;4.10;;;3.70;;
5054;SDS011;13829;48.990;8.346;2023-04-29T00:21:06;4.87;;;3.83;;
5054;SDS011;13829;48.990;8.346;2023-04-29T00:23:33;5.63;;;3.27;;
5054;SDS011;13829;48.990;8.346;2023-04-29T00:26:00;3.93;;;3.53;;
5054;SDS011;13829;48.990;8.346;2023-04-29T00:28:27;3.57;;;3.17;;
5054;SDS011;13829;48.990;8.346;2023-04-29T00:30:54;4.30;;;3.37;;
5054;SDS011;13829;48.990;8.346;2023-04-29T00:33:23;3.97;;;3.33;;
5054;SDS011;13829;48.990;8.346;2023-04-29T00:35:50;3.70;;;3.40;;
5054;SDS011;13829;48.990;8.346;2023-04-29T00:38:17;3.90;;;3.50;;
5054;SDS011;13829;48.990;8.346;2023-04-29T00:40:45;4.47;;;3.57;;
5054;SDS011;13829;48.990;8.346;2023-04-29T00:43:12;5.23;;;4.03;;
5054;SDS011;13829;48.990;8.346;2023-04-29T00:45:39;4.33;;;3.70;;
5054;SDS011;13829;48.990;8.346;2023-04-29T00:48:06;5.27;;;3.97;;
5054;SDS011;13829;48.990;8.346;2023-04-29T00:50:35;5.33;;;4.03;;
5054;SDS011;13829;48.990;8.346;2023-04-29T00:53:02;5.47;;;4.03;;
5054;SDS011;13829;48.990;8.346;2023-04-29T00:55:29;4.80;;;4.00;;
5054;SDS011;13829;48.990;8.346;2023-04-29T00:57:58;4.83;;;4.43;;
5054;SDS011;13829;48.990;8.346;2023-04-29T01:00:26;4.87;;;4.37;;
5054;SDS011;13829;48.990;8.346;2023-04-29T01:02:54;5.00;;;4.40;;
5054;SDS011;13829;48.990;8.346;2023-04-29T01:05:23;5.13;;;4.73;;
5054;SDS011;13829;48.990;8.346;2023-04-29T01:07:54;7.10;;;4.70;;
5054;SDS011;13829;48.990;8.346;2023-04-29T01:10:40;5.47;;;4.50;;
5054;SDS011;13829;48.990;8.346;2023-04-29T01:13:28;6.23;;;5.00;;
5054;SDS011;13829;48.990;8.346;2023-04-29T01:16:03;5.77;;;5.17;;
5054;SDS011;13829;48.990;8.346;2023-04-29T01:18:37;4.97;;;4.50;;
5054;SDS011;13829;48.990;8.346;2023-04-29T01:21:11;6.70;;;4.87;;
5054;SDS011;13829;48.990;8.346;2023-04-29T01:23:39;5.87;;;5.10;;
5054;SDS011;13829;48.990;8.346;2023-04-29T01:26:06;5.00;;;4.50;;
5054;SDS011;13829;48.990;8.346;2023-04-29T01:28:37;5.47;;;4.33;;
5054;SDS011;13829;48.990;8.346;2023-04-29T01:31:14;5.07;;;4.57;;
5054;SDS011;13829;48.990;8.346;2023-04-29T01:33:53;6.00;;;4.50;;
5054;SDS011;13829;48.990;8.346;2023-04-29T01:36:36;5.00;;;4.50;;
5054;SDS011;13829;48.990;8.346;2023-04-29T01:39:19;5.67;;;4.83;;
5054;SDS011;13829;48.990;8.346;2023-04-29T01:41:56;6.17;;;4.60;;
5054;SDS011;13829;48.990;8.346;2023-04-29T01:44:33;7.83;;;5.07;;
5054;SDS011;13829;48.990;8.346;2023-04-29T01:47:03;5.13;;;4.47;;
5054;SDS011;13829;48.990;8.346;2023-04-29T01:49:34;6.03;;;4.80;;
5054;SDS011;13829;48.990;8.346;2023-04-29T01:52:01;5.17;;;4.67;;
5054;SDS011;13829;48.990;8.346;2023-04-29T01:54:30;5.77;;;4.70;;
5054;SDS011;13829;48.990;8.346;2023-04-29T01:57:00;6.13;;;5.07;;
5054;SDS011;13829;48.990;8.346;2023-04-29T01:59:27;5.13;;;4.63;;
5054;SDS011;13829;48.990;8.346;2023-04-29T02:01:54;5.10;;;4.60;;
5054;SDS011;13829;48.990;8.346;2023-04-29T02:04:22;5.93;;;4.60;;
5054;SDS011;13829;48.990;8.346;2023-04-29T02:06:50;5.97;;;4.30;;
5054;SDS011;13829;48.990;8.346;2023-04-29T02:09:17;6.87;;;5.17;;
5054;SDS011;13829;48.990;8.346;2023-04-29T02:11:45;5.40;;;4.50;;
5054;SDS011;13829;48.990;8.346;2023-04-29T02:14:12;5.03;;;4.57;;
5054;SDS011;13829;48.990;8.346;2023-04-29T02:16:39;5.87;;;4.60;;
5054;SDS011;13829;48.990;8.346;2023-04-29T02:19:10;5.07;;;4.57;;
5054;SDS011;13829;48.990;8.346;2023-04-29T02:21:37;5.67;;;4.97;;
5054;SDS011;13829;48.990;8.346;2023-04-29T02:24:04;5.07;;;4.60;;
5054;SDS011;13829;48.990;8.346;2023-04-29T02:26:32;5.43;;;4.80;;
5054;SDS011;13829;48.990;8.346;2023-04-29T02:29:00;5.37;;;4.87;;
5054;SDS011;13829;48.990;8.346;2023-04-29T02:31:27;5.90;;;5.03;;
5054;SDS011;13829;48.990;8.346;2023-04-29T02:33:54;5.93;;;4.63;;
5054;SDS011;13829;48.990;8.346;2023-04-29T02:36:22;4.73;;;4.30;;
5054;SDS011;13829;48.990;8.346;2023-04-29T02:38:49;6.10;;;4.47;;
5054;SDS011;13829;48.990;8.346;2023-04-29T02:41:18;4.73;;;4.33;;
5054;SDS011;13829;48.990;8.346;2023-04-29T02:43:45;4.23;;;3.80;;
5054;SDS011;13829;48.990;8.346;2023-04-29T02:46:14;4.80;;;4.33;;
5054;SDS011;13829;48.990;8.346;2023-04-29T02:48:42;7.03;;;4.50;;
5054;SDS011;13829;48.990;8.346;2023-04-29T02:51:09;5.13;;;4.63;;
5054;SDS011;13829;48.990;8.346;2023-04-29T02:53:36;6.03;;;4.63;;
5054;SDS011;13829;48.990;8.346;2023-04-29T02:56:03;4.97;;;4.47;;
5054;SDS011;13829;48.990;8.346;2023-04-29T02:58:31;5.43;;;4.07;;
5054;SDS011;13829;48.990;8.346;2023-04-29T03:00:58;4.80;;;4.40;;
5054;SDS011;13829;48.990;8.346;2023-04-29T03:03:26;4.70;;;4.27;;
5054;SDS011;13829;48.990;8.346;2023-04-29T03:05:53;4.80;;;4.40;;
5054;SDS011;13829;48.990;8.346;2023-04-29T03:08:20;5.67;;;4.37;;
5054;SDS011;13829;48.990;8.346;2023-04-29T03:10:47;4.57;;;4.17;;
5054;SDS011;13829;48.990;8.346;2023-04-29T03:13:14;4.30;;;3.90;;
5054;SDS011;13829;48.990;8.346;2023-04-29T03:15:40;4.43;;;4.07;;
5054;SDS011;13829;48.990;8.346;2023-04-29T03:18:08;5.00;;;4.50;;
5054;SDS011;13829;48.990;8.346;2023-04-29T03:20:36;5.50;;;4.67;;
5054;SDS011;13829;48.990;8.346;2023-04-29T03:23:03;4.40;;;4.00;;
5054;SDS011;13829;48.990;8.346;2023-04-29T03:25:30;3.93;;;3.63;;
5054;SDS011;13829;48.990;8.346;2023-04-29T03:27:57;6.27;;;4.23;;
5054;SDS011;13829;48.990;8.346;2023-04-29T03:30:24;4.17;;;3.77;;
5054;SDS011;13829;48.990;8.346;2023-04-29T03:32:51;6.03;;;3.67;;
5054;SDS011;13829;48.990;8.346;2023-04-29T03:35:18;4.33;;;3.73;;
5054;SDS011;13829;48.990;8.346;2023-04-29T03:37:46;7.83;;;4.83;;
5054;SDS011;13829;48.990;8.346;2023-04-29T03:40:13;4.30;;;3.97;;
5054;SDS011;13829;48.990;8.346;2023-04-29T03:42:40;4.93;;;4.07;;
5054;SDS011;13829;48.990;8.346;2023-04-29T03:45:08;4.20;;;3.70;;
5054;SDS011;13829;48.990;8.346;2023-04-29T03:47:37;4.97;;;4.10;;
5054;SDS011;13829;48.990;8.346;2023-04-29T03:50:04;4.53;;;4.00;;
5054;SDS011;13829;48.990;8.346;2023-04-29T03:52:33;4.27;;;3.87;;
5054;SDS011;13829;48.990;8.346;2023-04-29T03:55:02;7.27;;;4.20;;
5054;SDS011;13829;48.990;8.346;2023-04-29T03:57:31;5.03;;;4.13;;
5054;SDS011;13829;48.990;8.346;2023-04-29T03:59:58;5.63;;;5.03;;
5054;SDS011;13829;48.990;8.346;2023-04-29T04:02:25;7.50;;;6.77;;
5054;SDS011;13829;48.990;8.346;2023-04-29T04:04:52;6.57;;;5.27;;
5054;SDS011;13829;48.990;8.346;2023-04-29T04:07:19;6.40;;;4.10;;
5054;SDS011;13829;48.990;8.346;2023-04-29T04:09:46;4.47;;;4.03;;
5054;SDS011;13829;48.990;8.346;2023-04-29T04:12:14;5.27;;;4.10;;
5054;SDS011;13829;48.990;8.346;2023-04-29T04:14:41;4.03;;;3.70;;
5054;SDS011;13829;48.990;8.346;2023-04-29T04:17:08;4.83;;;4.07;;
5054;SDS011;13829;48.990;8.346;2023-04-29T04:19:35;4.37;;;3.83;;
5054;SDS011;13829;48.990;8.346;2023-04-29T04:22:02;6.67;;;4.60;;
5054;SDS011;13829;48.990;8.346;2023-04-29T04:24:29;5.67;;;4.50;;
5054;SDS011;13829;48.990;8.346;2023-04-29T04:26:56;6.30;;;4.23;;
5054;SDS011;13829;48.990;8.346;2023-04-29T04:29:25;5.17;;;4.33;;
5054;SDS011;13829;48.990;8.346;2023-04-29T04:31:51;4.57;;;4.17;;
5054;SDS011;13829;48.990;8.346;2023-04-29T04:34:18;5.67;;;4.50;;
5054;SDS011;13829;48.990;8.346;2023-04-29T04:36:45;5.57;;;4.63;;
5054;SDS011;13829;48.990;8.346;2023-04-29T04:39:12;4.93;;;4.17;;
5054;SDS011;13829;48.990;8.346;2023-04-29T04:41:39;7.40;;;4.53;;
5054;SDS011;13829;48.990;8.346;2023-04-29T04:44:06;5.93;;;4.83;;
5054;SDS011;13829;48.990;8.346;2023-04-29T04:46:34;5.00;;;4.07;;
5054;SDS011;13829;48.990;8.346;2023-04-29T04:49:01;4.77;;;4.17;;
5054;SDS011;13829;48.990;8.346;2023-04-29T04:51:28;4.80;;;4.17;;
5054;SDS011;13829;48.990;8.346;2023-04-29T04:53:55;6.10;;;4.57;;
5054;SDS011;13829;48.990;8.346;2023-04-29T04:56:22;4.70;;;4.27;;
5054;SDS011;13829;48.990;8.346;2023-04-29T04:58:49;5.67;;;4.27;;
5054;SDS011;13829;48.990;8.346;2023-04-29T05:01:16;6.20;;;4.10;;
5054;SDS011;13829;48.990;8.346;2023-04-29T05:03:44;5.03;;;4.13;;
5054;SDS011;13829;48.990;8.346;2023-04-29T05:06:11;4.37;;;3.97;;
5054;SDS011;13829;48.990;8.346;2023-04-29T05:08:38;4.33;;;3.83;;
5054;SDS011;13829;48.990;8.346;2023-04-29T05:11:05;4.40;;;4.00;;
5054;SDS011;13829;48.990;8.346;2023-04-29T05:13:40;3.73;;;3.43;;
5054;SDS011;13829;48.990;8.346;2023-04-29T05:16:07;4.63;;;3.70;;
5054;SDS011;13829;48.990;8.346;2023-04-29T05:18:34;5.40;;;3.50;;
5054;SDS011;13829;48.990;8.346;2023-04-29T05:21:02;5.40;;;3.80;;
5054;SDS011;13829;48.990;8.346;2023-04-29T05:23:29;3.87;;;3.47;;
5054;SDS011;13829;48.990;8.346;2023-04-29T05:25:56;4.40;;;4.00;;
5054;SDS011;13829;48.990;8.346;2023-04-29T05:28:23;4.23;;;3.63;;
5054;SDS011;13829;48.990;8.346;2023-04-29T05:30:50;4.60;;;3.90;;
5054;SDS011;13829;48.990;8.346;2023-04-29T05:33:17;5.67;;;3.93;;
5054;SDS011;13829;48.990;8.346;2023-04-29T05:35:44;5.00;;;3.80;;
5054;SDS011;13829;48.990;8.346;2023-04-29T05:38:13;3.50;;;3.20;;
5054;SDS011;13829;48.990;8.346;2023-04-29T05:40:40;5.80;;;4.27;;
5054;SDS011;13829;48.990;8.346;2023-04-29T05:43:07;3.97;;;3.50;;
5054;SDS011;13829;48.990;8.346;2023-04-29T05:45:34;5.43;;;3.83;;
5054;SDS011;13829;48.990;8.346;2023-04-29T05:48:01;4.90;;;3.43;;
5054;SDS011;13829;48.990;8.346;2023-04-29T05:50:27;4.20;;;3.57;;
5054;SDS011;13829;48.990;8.346;2023-04-29T05:52:54;4.80;;;3.30;;
5054;SDS011;13829;48.990;8.346;2023-04-29T05:55:23;5.17;;;3.70;;
5054;SDS011;13829;48.990;8.346;2023-04-29T05:57:50;4.00;;;3.50;;
5054;SDS011;13829;48.990;8.346;2023-04-29T06:00:17;5.73;;;3.90;;
5054;SDS011;13829;48.990;8.346;2023-04-29T06:02:44;3.97;;;3.57;;
5054;SDS011;13829;48.990;8.346;2023-04-29T06:05:11;5.53;;;3.23;;
5054;SDS011;13829;48.990;8.346;2023-04-29T06:07:39;6.00;;;3.53;;
5054;SDS011;13829;48.990;8.346;2023-04-29T06:10:07;3.30;;;2.93;;
5054;SDS011;13829;48.990;8.346;2023-04-29T06:12:36;3.30;;;3.00;;
5054;SDS011;13829;48.990;8.346;2023-04-29T06:15:03;4.23;;;3.00;;
5054;SDS011;13829;48.990;8.346;2023-04-29T06:17:31;5.30;;;3.17;;
5054;SDS011;13829;48.990;8.346;2023-04-29T06:19:58;4.57;;;2.90;;
5054;SDS011;13829;48.990;8.346;2023-04-29T06:22:26;5.23;;;2.90;;
5054;SDS011;13829;48.990;8.346;2023-04-29T06:24:52;3.30;;;3.00;;
5054;SDS011;13829;48.990;8.346;2023-04-29T06:27:19;4.80;;;3.23;;
5054;SDS011;13829;48.990;8.346;2023-04-29T06:29:48;3.53;;;2.70;;
5054;SDS011;13829;48.990;8.346;2023-04-29T06:32:14;3.30;;;2.83;;
5054;SDS011;13829;48.990;8.346;2023-04-29T06:34:41;4.93;;;2.70;;
5054;SDS011;13829;48.990;8.346;2023-04-29T06:37:09;2.83;;;2.40;;
5054;SDS011;13829;48.990;8.346;2023-04-29T06:39:36;3.77;;;2.60;;
5054;SDS011;13829;48.990;8.346;2023-04-29T06:42:03;5.17;;;2.93;;
5054;SDS011;13829;48.990;8.346;2023-04-29T06:44:30;3.40;;;3.07;;
5054;SDS011;13829;48.990;8.346;2023-04-29T06:46:58;5.03;;;2.83;;
5054;SDS011;13829;48.990;8.346;2023-04-29T06:49:25;3.87;;;2.90;;
5054;SDS011;13829;48.990;8.346;2023-04-29T06:51:52;3.70;;;2.50;;
5054;SDS011;13829;48.990;8.346;2023-04-29T06:54:19;4.70;;;3.20;;
5054;SDS011;13829;48.990;8.346;2023-04-29T06:56:46;6.17;;;3.13;;
5054;SDS011;13829;48.990;8.346;2023-04-29T06:59:13;3.50;;;3.10;;
5054;SDS011;13829;48.990;8.346;2023-04-29T07:01:40;4.27;;;3.17;;
5054;SDS011;13829;48.990;8.346;2023-04-29T07:04:08;4.97;;;3.33;;
5054;SDS011;13829;48.990;8.346;2023-04-29T07:06:35;3.70;;;3.20;;
5054;SDS011;13829;48.990;8.346;2023-04-29T07:09:02;3.83;;;3.33;;
5054;SDS011;13829;48.990;8.346;2023-04-29T07:11:29;3.63;;;2.67;;
5054;SDS011;13829;48.990;8.346;2023-04-29T07:13:56;3.83;;;2.88;;
5054;SDS011;13829;48.990;8.346;2023-04-29T07:16:23;3.10;;;2.78;;
5054;SDS011;13829;48.990;8.346;2023-04-29T07:18:51;3.47;;;3.15;;
5054;SDS011;13829;48.990;8.346;2023-04-29T07:21:19;3.60;;;2.83;;
5054;SDS011;13829;48.990;8.346;2023-04-29T07:23:46;2.90;;;2.67;;
5054;SDS011;13829;48.990;8.346;2023-04-29T07:26:14;4.63;;;3.60;;
5054;SDS011;13829;48.990;8.346;2023-04-29T07:28:42;2.75;;;2.55;;
5054;SDS011;13829;48.990;8.346;2023-04-29T07:31:10;2.83;;;2.53;;
5054;SDS011;13829;48.990;8.346;2023-04-29T07:33:38;3.28;;;2.97;;
5054;SDS011;13829;48.990;8.346;2023-04-29T07:36:05;3.67;;;2.30;;
5054;SDS011;13829;48.990;8.346;2023-04-29T07:38:34;4.75;;;2.78;;
5054;SDS011;13829;48.990;8.346;2023-04-29T07:41:01;3.22;;;2.92;;
5054;SDS011;13829;48.990;8.346;2023-04-29T07:43:29;4.07;;;2.60;;
5054;SDS011;13829;48.990;8.346;2023-04-29T07:45:56;3.42;;;2.90;;
5054;SDS011;13829;48.990;8.346;2023-04-29T07:48:22;4.22;;;3.22;;
5054;SDS011;13829;48.990;8.346;2023-04-29T07:50:49;4.85;;;3.38;;
5054;SDS011;13829;48.990;8.346;2023-04-29T07:53:16;3.55;;;3.25;;
5054;SDS011;13829;48.990;8.346;2023-04-29T07:55:45;4.57;;;3.53;;
5054;SDS011;13829;48.990;8.346;2023-04-29T07:58:12;4.72;;;4.00;;
5054;SDS011;13829;48.990;8.346;2023-04-29T08:00:38;7.32;;;3.30;;
5054;SDS011;13829;48.990;8.346;2023-04-29T08:03:05;3.72;;;2.90;;
5054;SDS011;13829;48.990;8.346;2023-04-29T08:05:32;3.67;;;3.35;;
5054;SDS011;13829;48.990;8.346;2023-04-29T08:08:00;3.97;;;3.50;;
5054;SDS011;13829;48.990;8.346;2023-04-29T08:10:27;4.80;;;2.92;;
5054;SDS011;13829;48.990;8.346;2023-04-29T08:12:55;4.20;;;3.10;;
5054;SDS011;13829;48.990;8.346;2023-04-29T08:15:22;7.03;;;3.40;;
5054;SDS011;13829;48.990;8.346;2023-04-29T08:17:49;4.35;;;3.08;;
5054;SDS011;13829;48.990;8.346;2023-04-29T08:20:16;3.05;;;2.75;;
5054;SDS011;13829;48.990;8.346;2023-04-29T08:22:43;3.13;;;2.80;;
5054;SDS011;13829;48.990;8.346;2023-04-29T08:25:10;4.30;;;2.90;;
5054;SDS011;13829;48.990;8.346;2023-04-29T08:27:37;6.43;;;3.47;;
5054;SDS011;13829;48.990;8.346;2023-04-29T08:30:06;3.40;;;3.10;;
5054;SDS011;13829;48.990;8.346;2023-04-29T08:32:34;3.55;;;3.25;;
5054;SDS011;13829;48.990;8.346;2023-04-29T08:35:01;4.13;;;3.08;;
5054;SDS011;13829;48.990;8.346;2023-04-29T08:37:28;4.85;;;3.05;;
5054;SDS011;13829;48.990;8.346;2023-04-29T08:39:55;3.70;;;3.40;;
5054;SDS011;13829;48.990;8.346;2023-04-29T08:42:28;3.45;;;2.88;;
5054;SDS011;13829;48.990;8.346;2023-04-29T08:45:00;3.30;;;3.00;;
5054;SDS011;13829;48.990;8.346;2023-04-29T08:47:31;4.60;;;3.20;;
5054;SDS011;13829;48.990;8.346;2023-04-29T08:50:00;3.40;;;3.08;;
5054;SDS011;13829;48.990;8.346;2023-04-29T08:52:29;5.70;;;3.63;;
5054;SDS011;13829;48.990;8.346;2023-04-29T08:54:57;3.42;;;2.72;;
5054;SDS011;13829;48.990;8.346;2023-04-29T08:57:26;4.88;;;3.35;;
5054;SDS011;13829;48.990;8.346;2023-04-29T08:59:56;4.30;;;3.10;;
5054;SDS011;13829;48.990;8.346;2023-04-29T09:02:26;3.65;;;3.35;;
5054;SDS011;13829;48.990;8.346;2023-04-29T09:04:57;6.37;;;3.90;;
5054;SDS011;13829;48.990;8.346;2023-04-29T09:07:31;7.90;;;4.50;;
5054;SDS011;13829;48.990;8.346;2023-04-29T09:10:00;6.17;;;4.47;;
5054;SDS011;13829;48.990;8.346;2023-04-29T09:12:29;4.53;;;3.63;;
5054;SDS011;13829;48.990;8.346;2023-04-29T09:14:56;6.63;;;4.10;;
5054;SDS011;13829;48.990;8.346;2023-04-29T09:17:37;4.07;;;3.40;;
5054;SDS011;13829;48.990;8.346;2023-04-29T09:22:54;4.57;;;3.67;;
5054;SDS011;13829;48.990;8.346;2023-04-29T09:25:23;6.77;;;3.90;;
5054;SDS011;13829;48.990;8.346;2023-04-29T09:27:51;5.50;;;4.70;;
5054;SDS011;13829;48.990;8.346;2023-04-29T09:30:18;5.40;;;4.30;;
5054;SDS011;13829;48.990;8.346;2023-04-29T09:32:56;5.47;;;3.87;;
5054;SDS011;13829;48.990;8.346;2023-04-29T09:35:32;4.37;;;3.40;;
5054;SDS011;13829;48.990;8.346;2023-04-29T09:38:10;4.50;;;4.10;;
5054;SDS011;13829;48.990;8.346;2023-04-29T09:40:38;6.47;;;4.80;;
5054;SDS011;13829;48.990;8.346;2023-04-29T09:43:10;8.50;;;5.40;;
5054;SDS011;13829;48.990;8.346;2023-04-29T09:45:40;7.17;;;4.90;;
5054;SDS011;13829;48.990;8.346;2023-04-29T09:48:09;10.23;;;7.00;;
5054;SDS011;13829;48.990;8.346;2023-04-29T09:50:40;9.47;;;5.83;;
5054;SDS011;13829;48.990;8.346;2023-04-29T09:53:09;9.83;;;5.57;;
5054;SDS011;13829;48.990;8.346;2023-04-29T09:55:37;7.03;;;5.07;;
5054;SDS011;13829;48.990;8.346;2023-04-29T09:58:26;5.50;;;4.45;;
5054;SDS011;13829;48.990;8.346;2023-04-29T10:00:56;5.75;;;4.55;;
5054;SDS011;13829;48.990;8.346;2023-04-29T10:03:26;5.00;;;4.50;;
5054;SDS011;13829;48.990;8.346;2023-04-29T10:06:00;6.32;;;4.53;;
5054;SDS011;13829;48.990;8.346;2023-04-29T10:08:30;4.97;;;4.28;;
5054;SDS011;13829;48.990;8.346;2023-04-29T10:10:59;5.65;;;4.80;;
5054;SDS011;13829;48.990;8.346;2023-04-29T10:13:28;6.55;;;4.65;;
5054;SDS011;13829;48.990;8.346;2023-04-29T10:15:57;4.78;;;4.28;;
5054;SDS011;13829;48.990;8.346;2023-04-29T10:18:36;5.65;;;4.20;;
5054;SDS011;13829;48.990;8.346;2023-04-29T10:21:11;4.55;;;3.78;;
5054;SDS011;13829;48.990;8.346;2023-04-29T10:23:40;3.92;;;3.53;;
5054;SDS011;13829;48.990;8.346;2023-04-29T10:26:09;7.25;;;5.00;;
5054;SDS011;13829;48.990;8.346;2023-04-29T10:28:40;10.77;;;7.68;;
5054;SDS011;13829;48.990;8.346;2023-04-29T10:31:11;8.55;;;6.88;;
5054;SDS011;13829;48.990;8.346;2023-04-29T10:33:42;9.87;;;7.77;;
5054;SDS011;13829;48.990;8.346;2023-04-29T10:36:13;7.77;;;6.97;;
5054;SDS011;13829;48.990;8.346;2023-04-29T10:38:43;8.93;;;7.20;;
5054;SDS011;13829;48.990;8.346;2023-04-29T10:41:16;7.17;;;6.27;;
5054;SDS011;13829;48.990;8.346;2023-04-29T10:43:48;10.07;;;7.07;;
5054;SDS011;13829;48.990;8.346;2023-04-29T10:46:17;8.63;;;7.00;;
5054;SDS011;13829;48.990;8.346;2023-04-29T10:48:46;10.17;;;7.70;;
5054;SDS011;13829;48.990;8.346;2023-04-29T10:54:01;7.50;;;6.47;;
5054;SDS011;13829;48.990;8.346;2023-04-29T10:56:40;10.03;;;7.50;;
5054;SDS011;13829;48.990;8.346;2023-04-29T10:59:10;9.47;;;6.80;;
5054;SDS011;13829;48.990;8.346;2023-04-29T11:01:39;7.57;;;6.40;;
5054;SDS011;13829;48.990;8.346;2023-04-29T11:04:12;9.13;;;6.30;;
5054;SDS011;13829;48.990;8.346;2023-04-29T11:06:42;8.47;;;5.93;;
5054;SDS011;13829;48.990;8.346;2023-04-29T11:09:12;6.90;;;5.90;;
5054;SDS011;13829;48.990;8.346;2023-04-29T11:11:45;7.23;;;6.10;;
5054;SDS011;13829;48.990;8.346;2023-04-29T11:14:23;10.30;;;6.50;;
5054;SDS011;13829;48.990;8.346;2023-04-29T11:16:52;8.93;;;6.47;;
5054;SDS011;13829;48.990;8.346;2023-04-29T11:19:23;9.27;;;6.97;;
5054;SDS011;13829;48.990;8.346;2023-04-29T11:22:12;9.63;;;6.80;;
5054;SDS011;13829;48.990;8.346;2023-04-29T11:24:52;9.03;;;6.70;;
5054;SDS011;13829;48.990;8.346;2023-04-29T11:27:22;9.13;;;7.03;;
5054;SDS011;13829;48.990;8.346;2023-04-29T11:29:52;7.50;;;6.53;;
5054;SDS011;13829;48.990;8.346;2023-04-29T11:32:22;7.63;;;6.83;;
5054;SDS011;13829;48.990;8.346;2023-04-29T11:34:50;9.87;;;7.10;;
5054;SDS011;13829;48.990;8.346;2023-04-29T11:37:22;10.23;;;7.77;;
5054;SDS011;13829;48.990;8.346;2023-04-29T11:39:51;9.50;;;7.73;;
5054;SDS011;13829;48.990;8.346;2023-04-29T11:42:25;11.67;;;7.10;;
5054;SDS011;13829;48.990;8.346;2023-04-29T11:44:53;10.13;;;7.63;;
5054;SDS011;13829;48.990;8.346;2023-04-29T11:47:24;16.57;;;8.17;;
5054;SDS011;13829;48.990;8.346;2023-04-29T11:50:00;8.80;;;6.60;;
5054;SDS011;13829;48.990;8.346;2023-04-29T11:52:31;9.80;;;6.77;;
5054;SDS011;13829;48.990;8.346;2023-04-29T11:55:00;9.10;;;7.40;;
5054;SDS011;13829;48.990;8.346;2023-04-29T11:57:28;9.27;;;6.90;;
5054;SDS011;13829;48.990;8.346;2023-04-29T11:59:56;8.60;;;6.90;;
5054;SDS011;13829;48.990;8.346;2023-04-29T12:02:27;9.67;;;6.73;;
5054;SDS011;13829;48.990;8.346;2023-04-29T12:04:55;9.77;;;6.90;;
5054;SDS011;13829;48.990;8.346;2023-04-29T12:07:22;12.97;;;8.13;;
5054;SDS011;13829;48.990;8.346;2023-04-29T12:09:51;8.33;;;6.40;;
5054;SDS011;13829;48.990;8.346;2023-04-29T12:12:18;9.63;;;7.00;;
5054;SDS011;13829;48.990;8.346;2023-04-29T12:14:45;9.80;;;7.50;;
5054;SDS011;13829;48.990;8.346;2023-04-29T12:17:13;7.73;;;6.10;;
5054;SDS011;13829;48.990;8.346;2023-04-29T12:19:41;8.93;;;7.20;;
5054;SDS011;13829;48.990;8.346;2023-04-29T12:22:10;10.87;;;7.73;;
5054;SDS011;13829;48.990;8.346;2023-04-29T12:24:37;7.43;;;6.40;;
5054;SDS011;13829;48.990;8.346;2023-04-29T12:27:08;6.63;;;5.63;;
5054;SDS011;13829;48.990;8.346;2023-04-29T12:29:36;7.67;;;6.37;;
5054;SDS011;13829;48.990;8.346;2023-04-29T12:32:04;8.67;;;6.60;;
5054;SDS011;13829;48.990;8.346;2023-04-29T12:34:32;8.43;;;7.07;;
5054;SDS011;13829;48.990;8.346;2023-04-29T12:36:59;10.63;;;7.30;;
5054;SDS011;13829;48.990;8.346;2023-04-29T12:39:27;8.10;;;6.33;;
5054;SDS011;13829;48.990;8.346;2023-04-29T12:41:57;11.57;;;6.80;;
5054;SDS011;13829;48.990;8.346;2023-04-29T12:44:33;7.50;;;5.77;;
5054;SDS011;13829;48.990;8.346;2023-04-29T12:47:05;8.73;;;5.97;;
5054;SDS011;13829;48.990;8.346;2023-04-29T12:49:34;8.57;;;5.90;;
5054;SDS011;13829;48.990;8.346;2023-04-29T12:52:01;10.90;;;6.97;;
5054;SDS011;13829;48.990;8.346;2023-04-29T12:54:28;9.20;;;6.97;;
5054;SDS011;13829;48.990;8.346;2023-04-29T12:56:55;11.70;;;6.67;;
5054;SDS011;13829;48.990;8.346;2023-04-29T12:59:22;7.60;;;5.83;;
5054;SDS011;13829;48.990;8.346;2023-04-29T13:01:50;6.57;;;5.63;;
5054;SDS011;13829;48.990;8.346;2023-04-29T13:04:17;7.10;;;5.93;;
5054;SDS011;13829;48.990;8.346;2023-04-29T13:06:44;8.77;;;6.50;;
5054;SDS011;13829;48.990;8.346;2023-04-29T13:09:11;8.43;;;6.47;;
5054;SDS011;13829;48.990;8.346;2023-04-29T13:11:38;7.30;;;5.47;;
5054;SDS011;13829;48.990;8.346;2023-04-29T13:14:05;5.73;;;5.13;;
5054;SDS011;13829;48.990;8.346;2023-04-29T13:16:32;8.13;;;6.43;;
5054;SDS011;13829;48.990;8.346;2023-04-29T13:19:00;8.73;;;6.90;;
5054;SDS011;13829;48.990;8.346;2023-04-29T13:21:27;7.40;;;6.07;;
5054;SDS011;13829;48.990;8.346;2023-04-29T13:23:56;8.37;;;6.57;;
5054;SDS011;13829;48.990;8.346;2023-04-29T13:26:23;6.85;;;6.07;;
5054;SDS011;13829;48.990;8.346;2023-04-29T13:28:51;7.20;;;6.22;;
5054;SDS011;13829;48.990;8.346;2023-04-29T13:31:18;9.80;;;6.90;;
5054;SDS011;13829;48.990;8.346;2023-04-29T13:33:45;6.70;;;5.90;;
5054;SDS011;13829;48.990;8.346;2023-04-29T13:36:14;8.27;;;5.90;;
5054;SDS011;13829;48.990;8.346;2023-04-29T13:38:41;7.07;;;6.37;;
5054;SDS011;13829;48.990;8.346;2023-04-29T13:41:08;8.67;;;6.67;;
5054;SDS011;13829;48.990;8.346;2023-04-29T13:43:35;8.13;;;6.87;;
5054;SDS011;13829;48.990;8.346;2023-04-29T13:46:01;7.50;;;6.00;;
5054;SDS011;13829;48.990;8.346;2023-04-29T13:48:28;8.83;;;6.37;;
5054;SDS011;13829;48.990;8.346;2023-04-29T13:50:55;7.73;;;6.47;;
5054;SDS011;13829;48.990;8.346;2023-04-29T13:53:24;7.37;;;6.07;;
5054;SDS011;13829;48.990;8.346;2023-04-29T13:55:51;7.87;;;5.50;;
5054;SDS011;13829;48.990;8.346;2023-04-29T13:58:18;6.37;;;5.73;;
5054;SDS011;13829;48.990;8.346;2023-04-29T14:00:44;11.00;;;7.30;;
5054;SDS011;13829;48.990;8.346;2023-04-29T14:03:11;7.43;;;6.53;;
5054;SDS011;13829;48.990;8.346;2023-04-29T14:05:38;7.27;;;5.97;;
5054;SDS011;13829;48.990;8.346;2023-04-29T14:08:06;7.80;;;5.83;;
5054;SDS011;13829;48.990;8.346;2023-04-29T14:10:35;6.57;;;5.77;;
5054;SDS011;13829;48.990;8.346;2023-04-29T14:13:01;7.67;;;6.83;;
5054;SDS011;13829;48.990;8.346;2023-04-29T14:15:29;7.90;;;5.97;;
5054;SDS011;13829;48.990;8.346;2023-04-29T14:17:56;9.20;;;6.13;;
5054;SDS011;13829;48.990;8.346;2023-04-29T14:20:23;6.67;;;5.73;;
5054;SDS011;13829;48.990;8.346;2023-04-29T14:22:50;7.93;;;6.13;;
5054;SDS011;13829;48.990;8.346;2023-04-29T14:25:17;7.67;;;6.80;;
5054;SDS011;13829;48.990;8.346;2023-04-29T14:27:45;8.57;;;6.37;;
5054;SDS011;13829;48.990;8.346;2023-04-29T14:30:13;7.23;;;5.57;;
5054;SDS011;13829;48.990;8.346;2023-04-29T14:32:40;7.23;;;6.30;;
5054;SDS011;13829;48.990;8.346;2023-04-29T14:35:07;7.20;;;6.30;;
5054;SDS011;13829;48.990;8.346;2023-04-29T14:37:35;6.43;;;5.83;;
5054;SDS011;13829;48.990;8.346;2023-04-29T14:40:02;6.97;;;5.87;;
5054;SDS011;13829;48.990;8.346;2023-04-29T14:42:30;7.17;;;6.00;;
5054;SDS011;13829;48.990;8.346;2023-04-29T14:44:58;8.90;;;6.73;;
5054;SDS011;13829;48.990;8.346;2023-04-29T14:47:25;6.73;;;5.40;;
5054;SDS011;13829;48.990;8.346;2023-04-29T14:49:53;6.80;;;5.70;;
5054;SDS011;13829;48.990;8.346;2023-04-29T14:52:20;8.47;;;7.20;;
5054;SDS011;13829;48.990;8.346;2023-04-29T14:54:47;8.50;;;5.67;;
5054;SDS011;13829;48.990;8.346;2023-04-29T14:57:14;7.83;;;6.07;;
5054;SDS011;13829;48.990;8.346;2023-04-29T14:59:41;7.97;;;6.33;;
5054;SDS011;13829;48.990;8.346;2023-04-29T15:02:09;7.10;;;5.10;;
5054;SDS011;13829;48.990;8.346;2023-04-29T15:04:36;5.77;;;4.30;;
5054;SDS011;13829;48.990;8.346;2023-04-29T15:07:09;7.43;;;5.73;;
5054;SDS011;13829;48.990;8.346;2023-04-29T15:09:36;5.50;;;5.00;;
5054;SDS011;13829;48.990;8.346;2023-04-29T15:12:03;6.37;;;4.83;;
5054;SDS011;13829;48.990;8.346;2023-04-29T15:14:31;5.73;;;4.87;;